La Valle, Wisconsin
Current Conditions -  °F | °C
As of 12:15 PM on Friday 26 Dec 2014 (Local Time) from KC35 Reporting Station
Clear Clear  
Wind Chill: 41°   Ceiling: Unl
Heat Index: 43°   Visibility: 10mi
Dew Point: 34°   Wind: 5mph
Humidity: 69%   Direction: 250°WSW
Pressure: 29.93"   Gusts: NA
Location:  43.58°N, 90.13°W
Report Text: KC35 261815Z AUTO 25004KT 10SM CLR 06/01 A2993 RMK AO2 T00630010
Loading
Personal Weather Stations






























Interactive Weather Map New forecast layout! Learn more

10-Day Weather Forecast

Advertisements
Track Severe Weather on mobile